METAR AND TAF INFORMATION
METAR FOR UASK
ADDS - METARS form results

(1212 UTC 17 June 2019)
Data provider http://aviationweather.gov/metar/data/
 
METAR text: UASK 171200Z 17003MPS 130V210 9999 FEW050 22/08 Q1011 R30/090060 NOSIG RMK QFE733/0978
Conditions at: UASK (UST KAMENOGORSK , RU) observed 1200 UTC 17 June 2019
Temperature: 22.0°C (72°F)
Dewpoint: 8.0°C (46°F) [RH = 41%]
Pressure (altimeter): 29.85 inches Hg (1011.0 mb)
Winds: from the S (170 degrees) at 7 MPH (6 knots; 3.1 m/s)
Visibility: 6 or more miles (10+ km)
Ceiling: at least 12,000 feet AGL
Clouds: few clouds at 5000 feet AGL
Weather: no significant weather observed at this time

METAR text: UASK 171130Z 19002MPS 120V230 9999 FEW050 23/07 Q1012 R30/090060 NOSIG RMK QFE733/0978
Conditions at: UASK (UST KAMENOGORSK , RU) observed 1130 UTC 17 June 2019
Temperature: 23.0°C (73°F)
Dewpoint: 7.0°C (45°F) [RH = 36%]
Pressure (altimeter): 29.88 inches Hg (1012.0 mb)
Winds: from the S (190 degrees) at 5 MPH (4 knots; 2.1 m/s)
Visibility: 6 or more miles (10+ km)
Ceiling: at least 12,000 feet AGL
Clouds: few clouds at 5000 feet AGL
Weather: no significant weather observed at this time

Forecast for: UASK (UST KAMENOGORSK , RU)
Text: TAF UASK 171101Z 1712/1721 09004MPS 9999 SCT040 BKN100
Forecast period: 1200 to 2100 UTC 17 June 2019
Forecast type: FROM: standard forecast or significant change
Winds: from the E (90 degrees) at 9 MPH (8 knots; 4.1 m/s)
Visibility: 6 or more miles 10+ km)
Ceiling: 10000 feet AGL
Clouds: scattered clouds at 4000 feet AGL
broken clouds at 10000 feet AGL
Weather: no significant weather forecast for this period
Text: TEMPO 1715/1721 14005G10MPS
Forecast period: 1500 to 2100 UTC 17 June 2019
Forecast type: TEMPORARY: The following changes expected for less than half the time period
Winds: from the SE (140 degrees) at 12 MPH (10 knots; 5.1 m/s)
gusting to 22 MPH (19 knots; 9.8 m/s)
Visibility: missing
Ceiling: unknown
Clouds: missing
Weather: no significant weather forecast for this period

 AIRPORT MAP

 RUNWAY INFORMATION

 AIRPORT FREQUENCIES
Type TWR Name TWR Frequency 134.5 MHZ

 AIRPORT NEAR NAVIGATION AIDS
Type NDB Name Ust Kamenogorsk Frequency 345 KHZ
Type NDB Name Ust Kamenogorsk Frequency 345 KHZ



2018 Air Astana Virtual Airline